createdAt,value
2018-04-23T00:01:33.351Z,5.13
2018-04-23T00:04:01.620Z,5.17
2018-04-23T00:06:29.863Z,5.43
2018-04-23T00:08:58.106Z,5.37
2018-04-23T00:11:26.767Z,5.10
2018-04-23T00:13:55.235Z,5.30
2018-04-23T00:16:23.504Z,5.77
2018-04-23T00:18:51.767Z,5.13
2018-04-23T00:21:20.016Z,5.70
2018-04-23T00:23:48.244Z,4.67
2018-04-23T00:26:16.511Z,5.07
2018-04-23T00:28:44.751Z,4.87
2018-04-23T00:31:12.994Z,4.57
2018-04-23T00:33:41.568Z,5.60
2018-04-23T00:36:09.908Z,4.87
2018-04-23T00:38:38.910Z,4.50
2018-04-23T00:41:07.939Z,5.00
2018-04-23T00:43:36.183Z,6.03
2018-04-23T00:46:04.419Z,5.00
2018-04-23T00:48:32.679Z,5.17
2018-04-23T00:51:00.920Z,5.33
2018-04-23T00:53:39.356Z,4.63
2018-04-23T00:56:07.599Z,5.20
2018-04-23T00:58:35.876Z,5.50
2018-04-23T01:01:05.044Z,4.50
2018-04-23T01:03:33.291Z,5.40
2018-04-23T01:06:01.528Z,4.97
2018-04-23T01:08:29.799Z,5.00
2018-04-23T01:10:58.039Z,5.27
2018-04-23T01:13:26.280Z,4.73
2018-04-23T01:15:54.853Z,5.13
2018-04-23T01:18:23.099Z,4.97
2018-04-23T01:20:52.108Z,5.37
2018-04-23T01:23:21.141Z,5.10
2018-04-23T01:25:49.467Z,5.83
2018-04-23T01:28:17.707Z,5.67
2018-04-23T01:30:45.988Z,5.07
2018-04-23T01:33:14.227Z,5.23
2018-04-23T01:35:42.463Z,4.87
2018-04-23T01:38:11.031Z,5.60
2018-04-23T01:40:39.272Z,4.87
2018-04-23T01:43:07.520Z,6.27
2018-04-23T01:45:36.558Z,5.57
2018-04-23T01:48:04.804Z,5.53
2018-04-23T01:50:33.051Z,5.90
2018-04-23T01:53:02.084Z,5.90
2018-04-23T01:55:30.328Z,5.90
2018-04-23T01:57:59.339Z,5.50
2018-04-23T02:00:28.831Z,5.50
2018-04-23T02:02:57.088Z,5.87
2018-04-23T02:05:25.327Z,5.40
2018-04-23T02:07:53.588Z,5.33
2018-04-23T02:10:21.836Z,5.47
2018-04-23T02:12:50.845Z,5.20
2018-04-23T02:15:19.103Z,5.37
2018-04-23T02:17:47.948Z,5.30
2018-04-23T02:20:16.192Z,5.30
2018-04-23T02:22:44.853Z,5.80
2018-04-23T02:25:13.100Z,5.63
2018-04-23T02:27:41.347Z,5.37
2018-04-23T02:30:09.619Z,6.23
2018-04-23T02:32:37.863Z,5.80
2018-04-23T02:35:06.876Z,6.50
2018-04-23T02:37:35.157Z,5.97
2018-04-23T02:40:03.398Z,5.67
2018-04-23T02:42:31.724Z,5.43
2018-04-23T02:45:00.414Z,5.33
2018-04-23T02:47:28.751Z,5.93
2018-04-23T02:49:57.767Z,5.30
2018-04-23T02:52:26.026Z,5.30
2018-04-23T02:54:54.272Z,5.40
2018-04-23T02:57:23.285Z,6.20
2018-04-23T02:59:51.592Z,5.97
2018-04-23T03:02:20.585Z,5.30
2018-04-23T03:04:48.975Z,6.10
2018-04-23T03:07:17.689Z,5.73
2018-04-23T03:09:45.924Z,5.63
2018-04-23T03:12:14.177Z,5.20
2018-04-23T03:14:42.452Z,5.73
2018-04-23T03:17:12.715Z,5.33
2018-04-23T03:19:41.367Z,5.70
2018-04-23T03:22:10.432Z,5.93
2018-04-23T03:24:38.659Z,6.13
2018-04-23T03:27:06.913Z,5.00
2018-04-23T03:29:35.532Z,5.23
2018-04-23T03:32:03.781Z,5.50
2018-04-23T03:34:32.024Z,5.93
2018-04-23T03:37:01.293Z,5.20
2018-04-23T03:39:29.540Z,6.20
2018-04-23T03:41:57.783Z,5.13
2018-04-23T03:44:26.066Z,5.00
2018-04-23T03:46:54.447Z,5.67
2018-04-23T03:49:23.460Z,5.00
2018-04-23T03:51:52.795Z,5.03
2018-04-23T03:54:21.095Z,5.13
2018-04-23T03:56:49.344Z,5.73
2018-04-23T03:59:17.602Z,4.47
2018-04-23T04:01:45.951Z,4.93
2018-04-23T04:04:14.955Z,5.07
2018-04-23T04:06:43.983Z,4.60
2018-04-23T04:09:12.228Z,4.40
2018-04-23T04:11:40.468Z,5.00
2018-04-23T04:14:20.799Z,5.47
2018-04-23T04:16:58.612Z,4.60
2018-04-23T04:19:26.829Z,4.20
2018-04-23T04:21:55.455Z,4.03
2018-04-23T04:24:23.700Z,4.87
2018-04-23T04:26:51.973Z,5.40
2018-04-23T04:29:20.222Z,5.40
2018-04-23T04:31:48.464Z,6.03
2018-04-23T04:34:17.045Z,6.73
2018-04-23T04:36:45.291Z,6.40
2018-04-23T04:39:13.540Z,5.33
2018-04-23T04:41:41.809Z,5.87
2018-04-23T04:44:10.051Z,4.87
2018-04-23T04:46:38.299Z,4.80
2018-04-23T04:49:07.340Z,5.97
2018-04-23T04:51:35.578Z,4.73
2018-04-23T04:54:03.823Z,5.60
2018-04-23T04:56:32.151Z,5.83
2018-04-23T04:59:00.426Z,5.17
2018-04-23T05:01:29.034Z,4.67
2018-04-23T05:03:57.284Z,5.10
2018-04-23T05:06:25.527Z,6.23
2018-04-23T05:08:53.863Z,5.17
2018-04-23T05:11:22.120Z,5.70
2018-04-23T05:13:50.355Z,5.30
2018-04-23T05:16:18.600Z,3.93
2018-04-23T05:18:47.255Z,4.73
2018-04-23T05:21:15.492Z,4.47
2018-04-23T05:23:43.930Z,4.70
2018-04-23T05:26:12.171Z,5.53
2018-04-23T05:28:40.420Z,5.90
2018-04-23T05:31:09.441Z,5.47
2018-04-23T05:33:37.704Z,5.27
2018-04-23T05:36:06.219Z,4.47
2018-04-23T05:38:34.557Z,4.80
2018-04-23T05:41:03.892Z,4.90
2018-04-23T05:43:32.135Z,5.50
2018-04-23T05:46:00.375Z,5.40
2018-04-23T05:48:28.704Z,5.60
2018-04-23T05:50:56.952Z,5.17
2018-04-23T05:53:25.246Z,5.00
2018-04-23T05:55:57.555Z,4.97
2018-04-23T05:58:25.796Z,5.43
2018-04-23T06:00:54.040Z,4.83
2018-04-23T06:03:22.488Z,5.97
2018-04-23T06:05:50.736Z,6.83
2018-04-23T06:08:18.983Z,4.87
2018-04-23T06:10:47.240Z,5.60
2018-04-23T06:13:15.483Z,5.63
2018-04-23T06:15:43.887Z,5.40
2018-04-23T06:18:12.156Z,4.97
2018-04-23T06:20:40.401Z,4.80
2018-04-23T06:23:08.646Z,4.57
2018-04-23T06:25:37.229Z,5.13
2018-04-23T06:28:06.267Z,5.87
2018-04-23T06:30:34.512Z,4.50
2018-04-23T06:33:03.631Z,4.77
2018-04-23T06:35:31.872Z,5.17
2018-04-23T06:38:00.116Z,4.53
2018-04-23T06:40:29.152Z,5.57
2018-04-23T06:42:57.396Z,4.70
2018-04-23T06:45:25.639Z,5.50
2018-04-23T06:47:54.127Z,5.40
2018-04-23T06:50:22.389Z,4.30
2018-04-23T06:52:50.803Z,4.60
2018-04-23T06:55:19.077Z,4.90
2018-04-23T06:57:47.320Z,5.00
2018-04-23T07:00:15.562Z,4.40
2018-04-23T07:02:43.822Z,5.20
2018-04-23T07:05:12.124Z,4.60
2018-04-23T07:07:40.317Z,4.70
2018-04-23T07:10:08.812Z,4.60
2018-04-23T07:12:37.054Z,4.90
2018-04-23T07:15:05.296Z,5.47
2018-04-23T07:17:33.576Z,5.13
2018-04-23T07:20:01.826Z,5.03
2018-04-23T07:22:30.071Z,4.60
2018-04-23T07:24:58.357Z,5.67
2018-04-23T07:27:26.922Z,5.03
2018-04-23T07:29:55.973Z,4.77
2018-04-23T07:32:24.364Z,4.57
2018-04-23T07:34:52.690Z,4.40
2018-04-23T07:37:22.867Z,4.57
2018-04-23T07:39:51.141Z,5.47
2018-04-23T07:42:19.402Z,4.07
2018-04-23T07:44:47.647Z,4.07
2018-04-23T07:47:15.919Z,4.37
2018-04-23T07:49:44.167Z,3.87
2018-04-23T07:52:13.192Z,4.87
2018-04-23T07:54:41.900Z,4.50
2018-04-23T07:57:10.232Z,5.30
2018-04-23T07:59:39.248Z,6.03
2018-04-23T08:02:07.520Z,7.97
2018-04-23T08:04:35.764Z,7.03
2018-04-23T08:07:04.035Z,8.10
2018-04-23T08:09:32.324Z,8.13
2018-04-23T08:12:00.553Z,7.23
2018-04-23T08:14:28.807Z,8.80
2018-04-23T08:16:57.621Z,8.17
2018-04-23T08:19:25.864Z,7.13
2018-04-23T08:21:54.148Z,7.13
2018-04-23T08:24:22.743Z,7.30
2018-04-23T08:26:50.992Z,7.60
2018-04-23T08:29:19.488Z,7.90
2018-04-23T08:31:47.784Z,9.00
2018-04-23T08:34:16.000Z,6.87
2018-04-23T08:36:44.245Z,7.73
2018-04-23T08:39:13.344Z,8.47
2018-04-23T08:41:41.600Z,9.17
2018-04-23T08:44:09.848Z,7.77
2018-04-23T08:46:38.129Z,8.33
2018-04-23T08:49:07.141Z,7.60
2018-04-23T08:51:35.379Z,6.77
2018-04-23T08:54:03.648Z,8.17
2018-04-23T08:56:31.903Z,7.63
2018-04-23T08:59:00.152Z,7.40
2018-04-23T09:01:28.496Z,7.63
2018-04-23T09:03:56.733Z,7.23
2018-04-23T09:06:24.980Z,6.63
2018-04-23T09:08:53.278Z,7.00
2018-04-23T09:11:21.530Z,7.00
2018-04-23T09:13:49.775Z,6.80
2018-04-23T09:16:18.808Z,6.57
2018-04-23T09:18:47.056Z,7.50
2018-04-23T09:21:16.067Z,6.30
2018-04-23T09:23:45.167Z,6.47
2018-04-23T09:26:13.417Z,7.07
2018-04-23T09:28:42.433Z,6.40
2018-04-23T09:31:11.149Z,6.43
2018-04-23T09:33:39.383Z,6.07
2018-04-23T09:36:07.643Z,6.60
2018-04-23T09:38:36.847Z,6.10
2018-04-23T09:41:05.866Z,6.03
2018-04-23T09:43:34.113Z,6.93
2018-04-23T09:46:02.651Z,5.30
2018-04-23T09:48:30.902Z,5.60
2018-04-23T09:50:59.139Z,5.87
2018-04-23T09:53:27.407Z,6.70
2018-04-23T09:55:55.656Z,6.30
2018-04-23T09:58:23.904Z,7.10
2018-04-23T10:00:52.163Z,5.80
2018-04-23T10:03:30.329Z,7.30
2018-04-23T10:05:58.648Z,6.50
2018-04-23T10:08:26.898Z,6.23
2018-04-23T10:10:55.144Z,6.57
2018-04-23T10:13:23.416Z,6.47
2018-04-23T10:15:51.664Z,5.77
2018-04-23T10:18:19.911Z,5.90
2018-04-23T10:20:48.179Z,6.23
2018-04-23T10:23:16.423Z,6.70
2018-04-23T10:25:44.689Z,6.27
2018-04-23T10:28:13.176Z,5.67
2018-04-23T10:30:41.417Z,6.07
2018-04-23T10:33:10.999Z,5.67
2018-04-23T10:35:39.267Z,5.73
2018-04-23T10:38:07.509Z,5.83
2018-04-23T10:40:35.762Z,5.87
2018-04-23T10:43:04.028Z,5.83
2018-04-23T10:45:32.271Z,5.97
2018-04-23T10:48:00.516Z,5.43
2018-04-23T10:50:28.847Z,5.80
2018-04-23T10:52:57.088Z,6.17
2018-04-23T10:55:25.327Z,5.73
2018-04-23T10:57:53.611Z,5.13
2018-04-23T11:00:21.912Z,6.10
2018-04-23T11:02:50.159Z,5.90
2018-04-23T11:05:18.444Z,5.50
2018-04-23T11:07:46.683Z,5.97
2018-04-23T11:10:15.031Z,5.30
2018-04-23T11:12:43.595Z,5.50
2018-04-23T11:15:11.835Z,5.53
2018-04-23T11:17:40.090Z,5.53
2018-04-23T11:20:08.368Z,5.10
2018-04-23T11:22:36.612Z,6.17
2018-04-23T11:25:04.855Z,5.13
2018-04-23T11:27:33.150Z,6.00
2018-04-23T11:30:01.395Z,5.00
2018-04-23T11:32:30.453Z,6.27
2018-04-23T11:34:59.637Z,5.10
2018-04-23T11:37:27.879Z,5.37
2018-04-23T11:39:56.195Z,5.23
2018-04-23T11:42:24.462Z,6.50
2018-04-23T11:44:52.708Z,5.83
2018-04-23T11:47:21.023Z,5.73
2018-04-23T11:49:49.276Z,4.80
2018-04-23T11:52:18.128Z,5.53
2018-04-23T11:54:46.372Z,6.00
2018-04-23T11:57:14.768Z,5.70
2018-04-23T11:59:43.010Z,6.83
2018-04-23T12:02:11.255Z,6.00
2018-04-23T12:04:39.528Z,5.70
2018-04-23T12:07:07.772Z,5.67
2018-04-23T12:09:36.013Z,6.30
2018-04-23T12:12:04.279Z,5.50
2018-04-23T12:14:32.529Z,5.80
2018-04-23T12:17:00.768Z,4.87
2018-04-23T12:19:29.569Z,4.40
2018-04-23T12:21:57.800Z,6.17
2018-04-23T12:24:26.039Z,6.17
2018-04-23T12:26:54.311Z,5.20
2018-04-23T12:29:23.340Z,6.20
2018-04-23T12:31:51.581Z,5.40
2018-04-23T12:34:19.861Z,5.57
2018-04-23T12:36:49.055Z,5.13
2018-04-23T12:39:18.116Z,5.47
2018-04-23T12:41:46.597Z,5.80
2018-04-23T12:44:14.831Z,6.03
2018-04-23T12:46:43.079Z,4.60
2018-04-23T12:49:11.365Z,4.53
2018-04-23T12:51:40.376Z,5.13
2018-04-23T12:54:08.612Z,4.67
2018-04-23T12:56:36.880Z,4.70
2018-04-23T12:59:05.235Z,4.80
2018-04-23T13:01:33.486Z,7.30
2018-04-23T13:04:01.820Z,5.80
2018-04-23T13:06:30.064Z,5.87
2018-04-23T13:08:58.314Z,5.40
2018-04-23T13:11:26.586Z,5.93
2018-04-23T13:13:55.023Z,4.90
2018-04-23T13:16:23.283Z,5.93
2018-04-23T13:18:51.544Z,5.20
2018-04-23T13:21:19.788Z,5.63
2018-04-23T13:23:48.075Z,5.60
2018-04-23T13:26:16.415Z,5.30
2018-04-23T13:28:44.664Z,5.30
2018-04-23T13:31:12.910Z,6.13
2018-04-23T13:33:41.330Z,5.00
2018-04-23T13:36:09.557Z,5.70
2018-04-23T13:38:37.984Z,4.53
2018-04-23T13:41:06.303Z,5.27
2018-04-23T13:43:35.321Z,5.17
2018-04-23T13:46:03.578Z,6.20
2018-04-23T13:48:32.094Z,6.60
2018-04-23T13:51:00.351Z,6.10
2018-04-23T13:53:28.628Z,6.20
2018-04-23T13:55:56.895Z,6.20
2018-04-23T13:58:25.165Z,6.10
2018-04-23T14:00:53.408Z,5.47
2018-04-23T14:03:21.681Z,5.00
2018-04-23T14:05:49.928Z,4.90
2018-04-23T14:08:18.179Z,5.70
2018-04-23T14:10:46.735Z,5.80
2018-04-23T14:13:14.992Z,5.53
2018-04-23T14:15:43.259Z,4.90
2018-04-23T14:18:11.533Z,4.87
2018-04-23T14:20:39.788Z,5.40
2018-04-23T14:23:08.036Z,5.97
2018-04-23T14:25:36.300Z,5.13
2018-04-23T14:28:05.324Z,5.30
2018-04-23T14:30:34.473Z,5.57
2018-04-23T14:33:02.976Z,5.23
2018-04-23T14:35:31.987Z,6.93
2018-04-23T14:38:00.237Z,5.90
2018-04-23T14:40:29.450Z,5.70
2018-04-23T14:42:57.711Z,6.33
2018-04-23T14:45:26.716Z,6.40
2018-04-23T14:47:54.992Z,6.10
2018-04-23T14:50:24.153Z,6.23
2018-04-23T14:52:52.424Z,5.73
2018-04-23T14:55:20.968Z,5.77
2018-04-23T14:57:50.292Z,5.50
2018-04-23T15:00:18.591Z,6.93
2018-04-23T15:02:47.620Z,6.07
2018-04-23T15:05:16.592Z,6.63
2018-04-23T15:07:44.819Z,7.20
2018-04-23T15:10:13.197Z,6.23
2018-04-23T15:12:41.436Z,6.97
2018-04-23T15:15:09.680Z,6.50
2018-04-23T15:17:37.999Z,6.73
2018-04-23T15:20:08.183Z,4.93
2018-04-23T15:22:36.424Z,7.60
2018-04-23T15:25:04.696Z,7.37
2018-04-23T15:27:33.088Z,6.50
2018-04-23T15:30:01.348Z,6.70
2018-04-23T15:32:29.862Z,6.90
2018-04-23T15:34:58.127Z,7.70
2018-04-23T15:37:26.376Z,7.60
2018-04-23T15:39:54.998Z,6.27
2018-04-23T15:42:23.244Z,7.40
2018-04-23T15:44:51.500Z,7.00
2018-04-23T15:47:20.539Z,8.10
2018-04-23T15:49:48.784Z,5.93
2018-04-23T15:52:17.027Z,6.40
2018-04-23T15:54:45.303Z,7.07
2018-04-23T15:57:13.559Z,6.53
2018-04-23T15:59:41.943Z,7.30
2018-04-23T16:02:10.399Z,6.50
2018-04-23T16:04:38.641Z,8.70
2018-04-23T16:07:06.892Z,7.70
2018-04-23T16:09:35.923Z,7.50
2018-04-23T16:12:04.649Z,7.60
2018-04-23T16:14:32.897Z,8.97
2018-04-23T16:17:01.272Z,8.30
2018-04-23T16:19:29.519Z,7.03
2018-04-23T16:21:57.862Z,7.40
2018-04-23T16:24:26.179Z,7.00
2018-04-23T16:26:54.499Z,7.47
2018-04-23T16:29:22.791Z,6.70
2018-04-23T16:31:51.055Z,6.20
2018-04-23T16:34:19.308Z,7.03
2018-04-23T16:36:47.635Z,6.40
2018-04-23T16:39:16.035Z,6.73
2018-04-23T16:41:45.095Z,6.50
2018-04-23T16:44:13.375Z,5.80
2018-04-23T16:46:41.840Z,5.30
2018-04-23T16:49:10.087Z,5.57
2018-04-23T16:51:38.327Z,5.63
2018-04-23T16:54:08.768Z,5.50
2018-04-23T16:56:37.791Z,5.37
2018-04-23T16:59:06.751Z,5.50
2018-04-23T17:01:35.783Z,5.40
2018-04-23T17:04:04.036Z,5.63
2018-04-23T17:06:32.279Z,5.40
2018-04-23T17:09:00.935Z,4.97
2018-04-23T17:11:29.264Z,5.93
2018-04-23T17:13:58.270Z,4.00
2018-04-23T17:16:27.316Z,4.57
2018-04-23T17:18:57.772Z,4.77
2018-04-23T17:21:27.108Z,4.60
2018-04-23T17:23:55.348Z,4.00
2018-04-23T17:26:23.703Z,3.80
2018-04-23T17:28:51.927Z,3.93
2018-04-23T17:31:21.299Z,4.40
2018-04-23T17:33:49.544Z,3.90
2018-04-23T17:36:17.967Z,4.20
2018-04-23T17:38:46.227Z,4.53
2018-04-23T17:41:15.874Z,4.60
2018-04-23T17:43:46.147Z,5.23
2018-04-23T17:46:15.021Z,5.90
2018-04-23T17:48:43.244Z,5.00
2018-04-23T17:51:12.513Z,5.70
2018-04-23T17:53:40.983Z,5.60
2018-04-23T17:56:09.230Z,6.87
2018-04-23T17:58:37.651Z,6.07
2018-04-23T18:01:05.922Z,5.37
2018-04-23T18:03:34.203Z,6.03
2018-04-23T18:06:02.540Z,6.93
2018-04-23T18:08:30.931Z,5.87
2018-04-23T18:10:59.319Z,6.87
2018-04-23T18:13:27.621Z,5.80
2018-04-23T18:15:55.996Z,6.30
2018-04-23T18:18:24.387Z,5.90
2018-04-23T18:20:52.634Z,6.63
2018-04-23T18:23:20.901Z,6.27
2018-04-23T18:25:49.205Z,6.10
2018-04-23T18:28:17.676Z,6.73
2018-04-23T18:30:46.027Z,6.23
2018-04-23T18:33:14.463Z,6.13
2018-04-23T18:35:42.802Z,7.63
2018-04-23T18:38:11.487Z,6.30
2018-04-23T18:40:40.719Z,7.00
2018-04-23T18:43:09.173Z,7.80
2018-04-23T18:45:37.536Z,7.77
2018-04-23T18:48:06.519Z,7.10
2018-04-23T18:50:34.892Z,8.53
2018-04-23T18:53:03.116Z,6.90
2018-04-23T18:55:32.644Z,7.60
2018-04-23T18:58:00.879Z,7.23
2018-04-23T19:00:29.979Z,7.70
2018-04-23T19:02:58.223Z,7.93
2018-04-23T19:05:26.651Z,6.70
2018-04-23T19:07:57.263Z,5.93
2018-04-23T19:10:25.567Z,7.10
2018-04-23T19:12:53.807Z,6.20
2018-04-23T19:15:22.076Z,6.60
2018-04-23T19:17:50.518Z,7.20
2018-04-23T19:20:18.751Z,8.27
2018-04-23T19:22:47.088Z,8.07
2018-04-23T19:25:15.484Z,7.23
2018-04-23T19:27:43.712Z,8.70
2018-04-23T19:30:12.055Z,8.10
2018-04-23T19:32:40.387Z,8.40
2018-04-23T19:35:09.400Z,8.33
2018-04-23T19:37:37.672Z,8.30
2018-04-23T19:40:05.931Z,8.80
2018-04-23T19:42:34.179Z,7.90
2018-04-23T19:45:02.506Z,8.70
2018-04-23T19:47:30.979Z,8.33
2018-04-23T19:50:01.164Z,8.60
2018-04-23T19:52:29.437Z,7.83
2018-04-23T19:54:58.851Z,8.10
2018-04-23T19:57:27.315Z,9.33
2018-04-23T19:59:56.721Z,8.57
2018-04-23T20:02:24.951Z,8.57
2018-04-23T20:04:53.219Z,8.73
2018-04-23T20:07:22.061Z,8.67
2018-04-23T20:09:50.374Z,9.40
2018-04-23T20:12:19.655Z,8.40
2018-04-23T20:14:47.926Z,9.90
2018-04-23T20:17:16.308Z,9.10
2018-04-23T20:19:44.545Z,9.43
2018-04-23T20:22:13.228Z,9.80
2018-04-23T20:24:42.971Z,8.77
2018-04-23T20:27:11.200Z,9.07
2018-04-23T20:29:39.695Z,9.73
2018-04-23T20:32:07.952Z,9.27
2018-04-23T20:34:36.974Z,10.40
2018-04-23T20:37:05.324Z,9.93
2018-04-23T20:39:34.340Z,9.83
2018-04-23T20:42:02.584Z,10.03
2018-04-23T20:44:30.859Z,11.57
2018-04-23T20:46:59.111Z,9.70
2018-04-23T20:49:27.836Z,9.10
2018-04-23T20:51:57.023Z,11.07
2018-04-23T20:54:25.301Z,9.37
2018-04-23T20:56:53.512Z,9.47
2018-04-23T20:59:21.817Z,10.57
2018-04-23T21:01:50.039Z,9.70
2018-04-23T21:04:19.052Z,9.77
2018-04-23T21:06:47.323Z,9.50
2018-04-23T21:09:15.687Z,9.00
2018-04-23T21:11:44.127Z,9.57
2018-04-23T21:14:12.644Z,9.97
2018-04-23T21:16:40.896Z,10.13
2018-04-23T21:19:09.146Z,9.37
2018-04-23T21:21:37.423Z,9.60
2018-04-23T21:24:05.796Z,11.17
2018-04-23T21:26:34.052Z,10.30
2018-04-23T21:29:03.427Z,10.73
2018-04-23T21:31:32.451Z,10.63
2018-04-23T21:34:00.844Z,10.27
2018-04-23T21:36:29.332Z,10.07
2018-04-23T21:38:57.587Z,9.60
2018-04-23T21:41:25.844Z,10.53
2018-04-23T21:43:54.120Z,12.23
2018-04-23T21:46:23.172Z,10.30
2018-04-23T21:48:51.436Z,10.03
2018-04-23T21:51:20.095Z,10.77
2018-04-23T21:53:48.424Z,11.47
2018-04-23T21:56:16.672Z,12.10
2018-04-23T21:58:45.247Z,11.03
2018-04-23T22:01:13.493Z,11.33
2018-04-23T22:03:41.759Z,11.50
2018-04-23T22:06:10.053Z,11.40
2018-04-23T22:08:38.303Z,10.97
2018-04-23T22:11:06.691Z,12.07
2018-04-23T22:13:34.968Z,11.63
2018-04-23T22:16:03.227Z,11.00
2018-04-23T22:18:31.486Z,12.00
2018-04-23T22:20:59.808Z,11.83
2018-04-23T22:23:28.071Z,11.90
2018-04-23T22:25:57.111Z,12.40
2018-04-23T22:28:25.379Z,13.67
2018-04-23T22:30:53.636Z,13.20
2018-04-23T22:33:21.884Z,12.90
2018-04-23T22:35:50.592Z,13.10
2018-04-23T22:38:19.611Z,14.47
2018-04-23T22:40:47.863Z,13.43
2018-04-23T22:43:16.383Z,15.20
2018-04-23T22:45:44.648Z,14.00
2018-04-23T22:48:12.900Z,14.37
2018-04-23T22:50:41.175Z,15.17
2018-04-23T22:53:10.479Z,14.83
2018-04-23T22:55:38.731Z,14.90
2018-04-23T22:58:08.196Z,13.57
2018-04-23T23:00:36.456Z,13.43
2018-04-23T23:03:04.700Z,13.60
2018-04-23T23:05:33.142Z,13.83
2018-04-23T23:08:01.391Z,15.10
2018-04-23T23:10:29.644Z,13.67
2018-04-23T23:12:57.920Z,14.37
2018-04-23T23:15:26.177Z,13.20
2018-04-23T23:17:54.436Z,13.00
2018-04-23T23:20:22.704Z,14.30
2018-04-23T23:22:50.948Z,12.43
2018-04-23T23:25:19.214Z,14.33
2018-04-23T23:27:47.548Z,13.50
2018-04-23T23:30:15.807Z,14.70
2018-04-23T23:32:44.059Z,13.57
2018-04-23T23:35:12.336Z,13.53
2018-04-23T23:37:40.588Z,13.07
2018-04-23T23:40:08.841Z,14.23
2018-04-23T23:42:37.883Z,14.63
2018-04-23T23:45:06.136Z,13.40
2018-04-23T23:47:34.396Z,14.87
2018-04-23T23:50:02.723Z,14.53
2018-04-23T23:52:30.976Z,14.00
2018-04-23T23:54:59.327Z,12.57
2018-04-23T23:57:28.372Z,12.37
2018-04-23T23:59:56.619Z,12.93
